KLUL/LUL METAR and TAF weather

Enter ICAO airport designator
Station Type Date Time Source
KLUL METAR 2021/04/17 02:15 UTC NOAA

KLUL 170215Z AUTO 13006KT 10SM -RA BKN120 16/13 A2984 RMK A02 T01560131


Station Type Date Time Source
KLUL Decoded METAR 2021/04/17 02:15 UTC NOAA

Station name not available
Apr 16, 2021 - 10:15 PM EDT / 2021.04.17 0215 UTC
Wind: from the SE (130 degrees) at 7 MPH (6 KT):0
Visibility: 10 mile(s):0
Sky conditions: mostly cloudy
Weather: light rain
Temperature: 60.1 F (15.6 C)
Dew Point: 55.6 F (13.1 C)
Relative Humidity: 85%
Pressure (altimeter): 29.84 in. Hg (1010 hPa)
ob: KLUL 170215Z AUTO 13006KT 10SM -RA BKN120 16/13 A2984 RMK A02 T01560131
cycle: 2

Station Type Date Time Source
KLUL TAF UTC NOAA

Error!

Example: see airport list